Nissho Maru No.18 — JL6369 — position and weather

sailwx.info

Track history (hours):
 
Tides and Currents Weather Stations Pressure Air Temp Water Temp Dewpoint Dewpoint Depression Visibility Wind Speed Wind Dir Waves Ship Positions

Nissho Maru No.18

Last reported at 2016-Aug-29 12:32 UTC. Time now 2016-Aug-29 13:02 UTC.
Position N 35°28' E 139°54'.

Length 65 m; draft 4 m.

Type: Tanker. MMSI: 431500465.

Date/timePositionNaut miles runAvg speedWind from/ knotsBaromVisibWave heightAir tempDewpointWater temp
2016-Aug-29 12:32N 35°28' E 139°54'0 0.0
2016-Aug-29 11:33N 35°28' E 139°54'0 0.0
2016-Aug-29 10:33N 35°28' E 139°54'0 0.0
2016-Aug-29 09:33N 35°28' E 139°54'0 0.0
2016-Aug-29 08:33N 35°28' E 139°54'0 0.0
2016-Aug-29 07:33N 35°28' E 139°54'0 0.0
2016-Aug-29 06:33N 35°28' E 139°54'0 0.0
2016-Aug-29 05:33N 35°28' E 139°54'0 0.0
2016-Aug-29 04:24N 35°28' E 139°54'0 0.0
2016-Aug-29 03:24N 35°28' E 139°54'0 0.0
2016-Aug-29 02:33N 35°28' E 139°54'0 0.0
2016-Aug-29 01:33N 35°28' E 139°54'0 0.0
2016-Aug-29 00:27N 35°28' E 139°54'0 0.0
2016-Aug-28 23:33N 35°28' E 139°54'0 0.0
2016-Aug-28 22:33N 35°28' E 139°54'0 0.0
2016-Aug-28 21:33N 35°28' E 139°54'0 0.0
2016-Aug-28 20:15N 35°28' E 139°54'0 0.0
2016-Aug-28 19:33N 35°28' E 139°54'0 0.0
2016-Aug-28 18:33N 35°28' E 139°54'0 0.0
2016-Aug-28 17:33N 35°28' E 139°54'0 0.0
2016-Aug-28 16:33N 35°28' E 139°54'0 0.0
2016-Aug-28 15:30N 35°28' E 139°54'0 0.0
2016-Aug-28 14:33N 35°28' E 139°54'0 0.0
2016-Aug-28 13:33N 35°28' E 139°54'0 0.1
2016-Aug-28 12:30N 35°28' E 139°54'5 5.7
2016-Aug-28 11:34N 35°29' E 140°01'0 0.0
2016-Aug-28 10:33N 35°29' E 140°01'0 0.0
2016-Aug-28 09:32N 35°29' E 140°01'0 0.0
2016-Aug-28 08:33N 35°29' E 140°01'0 0.0
2016-Aug-28 07:33N 35°29' E 140°01'0 0.0
2016-Aug-28 06:33N 35°29' E 140°01'3 2.7
2016-Aug-28 05:33N 35°29' E 139°58'7 6.7
2016-Aug-28 04:33N 35°27' E 139°50'7 7.0
2016-Aug-28 03:33N 35°21' E 139°45'8 7.7
2016-Aug-28 02:33N 35°14' E 139°47'8 7.8
2016-Aug-28 01:33N 35°06' E 139°45'239 6.8
2016-Aug-26 14:14N 34°21' E 134°59'710.1
2016-Aug-26 13:33N 34°28' E 135°01'9 6.4
2016-Aug-26 12:06N 34°36' E 134°55'910.5
2016-Aug-26 11:14N 34°41' E 134°46'14 2.1
2016-Aug-26 04:33N 34°37' E 135°02'8 8.3
2016-Aug-26 03:33N 34°29' E 135°03'10 9.6
2016-Aug-26 02:33N 34°19' E 135°00'9 9.1
2016-Aug-26 01:33N 34°10' E 135°00'229 7.1
2016-Aug-24 17:29N 35°02' E 139°31'10 8.7
2016-Aug-24 16:22N 35°06' E 139°41'7 9.2
2016-Aug-24 15:33N 35°13' E 139°46'10 9.6
2016-Aug-24 14:33N 35°22' E 139°42'9 8.8
2016-Aug-24 13:33N 35°28' E 139°49'8 8.5
2016-Aug-24 12:33N 35°29' E 139°60'1 1.3
2016-Aug-24 11:33N 35°29' E 140°01'0 0.0
2016-Aug-24 10:33N 35°29' E 140°01'0 0.0
2016-Aug-24 09:33N 35°29' E 140°01'0 0.0
2016-Aug-24 08:33N 35°29' E 140°01'0 0.0
2016-Aug-24 07:33N 35°29' E 140°01'3 3.3
2016-Aug-24 06:33N 35°29' E 139°57'4 1.8
2016-Aug-24 04:34N 35°28' E 139°53'9 8.7
2016-Aug-24 03:34N 35°22' E 139°45'8 8.0
2016-Aug-24 02:33N 35°14' E 139°47'9 8.8
2016-Aug-24 01:33N 35°06' E 139°45'240 7.2
2016-Aug-22 16:18N 34°19' E 134°59'7 9.3
2016-Aug-22 15:33N 34°25' E 135°01'9 8.7
2016-Aug-22 14:33N 34°34' E 135°03'6 0.2
2016-Aug-21 01:18N 34°36' E 134°56'7 9.8
2016-Aug-21 00:33N 34°35' E 135°05'2110.0
2016-Aug-20 22:29N 34°15' E 134°59'8 8.8
2016-Aug-20 21:33N 34°06' E 135°01'242 7.8
2016-Aug-19 14:24N 35°09' E 139°44'8 9.5
2016-Aug-19 13:33N 35°17' E 139°44'8 8.1
2016-Aug-19 12:33N 35°26' E 139°45'  
Track history (hours):
 
Tides and Currents Weather Stations Pressure Air Temp Water Temp Dewpoint Dewpoint Depression Visibility Wind Speed Wind Dir Waves Ship Positions

Nissho Maru No.18

Last reported at 2016-Aug-29 12:32 UTC. Time now 2016-Aug-29 13:02 UTC.
Position N 35°28' E 139°54'.

Length 65 m; draft 4 m.

Type: Tanker. MMSI: 431500465.

Date/timePositionNaut miles runAvg speedWind from/ knotsBaromVisibWave heightAir tempDewpointWater temp
2016-Aug-29 12:32N 35°28' E 139°54'0 0.0
2016-Aug-29 11:33N 35°28' E 139°54'0 0.0
2016-Aug-29 10:33N 35°28' E 139°54'0 0.0
2016-Aug-29 09:33N 35°28' E 139°54'0 0.0
2016-Aug-29 08:33N 35°28' E 139°54'0 0.0
2016-Aug-29 07:33N 35°28' E 139°54'0 0.0
2016-Aug-29 06:33N 35°28' E 139°54'0 0.0
2016-Aug-29 05:33N 35°28' E 139°54'0 0.0
2016-Aug-29 04:24N 35°28' E 139°54'0 0.0
2016-Aug-29 03:24N 35°28' E 139°54'0 0.0
2016-Aug-29 02:33N 35°28' E 139°54'0 0.0
2016-Aug-29 01:33N 35°28' E 139°54'0 0.0
2016-Aug-29 00:27N 35°28' E 139°54'0 0.0
2016-Aug-28 23:33N 35°28' E 139°54'0 0.0
2016-Aug-28 22:33N 35°28' E 139°54'0 0.0
2016-Aug-28 21:33N 35°28' E 139°54'0 0.0
2016-Aug-28 20:15N 35°28' E 139°54'0 0.0
2016-Aug-28 19:33N 35°28' E 139°54'0 0.0
2016-Aug-28 18:33N 35°28' E 139°54'0 0.0
2016-Aug-28 17:33N 35°28' E 139°54'0 0.0
2016-Aug-28 16:33N 35°28' E 139°54'0 0.0
2016-Aug-28 15:30N 35°28' E 139°54'0 0.0
2016-Aug-28 14:33N 35°28' E 139°54'0 0.0
2016-Aug-28 13:33N 35°28' E 139°54'0 0.1
2016-Aug-28 12:30N 35°28' E 139°54'5 5.7
2016-Aug-28 11:34N 35°29' E 140°01'0 0.0
2016-Aug-28 10:33N 35°29' E 140°01'0 0.0
2016-Aug-28 09:32N 35°29' E 140°01'0 0.0
2016-Aug-28 08:33N 35°29' E 140°01'0 0.0
2016-Aug-28 07:33N 35°29' E 140°01'0 0.0
2016-Aug-28 06:33N 35°29' E 140°01'3 2.7
2016-Aug-28 05:33N 35°29' E 139°58'7 6.7
2016-Aug-28 04:33N 35°27' E 139°50'7 7.0
2016-Aug-28 03:33N 35°21' E 139°45'8 7.7
2016-Aug-28 02:33N 35°14' E 139°47'8 7.8
2016-Aug-28 01:33N 35°06' E 139°45'239 6.8
2016-Aug-26 14:14N 34°21' E 134°59'710.1
2016-Aug-26 13:33N 34°28' E 135°01'9 6.4
2016-Aug-26 12:06N 34°36' E 134°55'910.5
2016-Aug-26 11:14N 34°41' E 134°46'14 2.1
2016-Aug-26 04:33N 34°37' E 135°02'8 8.3
2016-Aug-26 03:33N 34°29' E 135°03'10 9.6
2016-Aug-26 02:33N 34°19' E 135°00'9 9.1
2016-Aug-26 01:33N 34°10' E 135°00'229 7.1
2016-Aug-24 17:29N 35°02' E 139°31'10 8.7
2016-Aug-24 16:22N 35°06' E 139°41'7 9.2
2016-Aug-24 15:33N 35°13' E 139°46'10 9.6
2016-Aug-24 14:33N 35°22' E 139°42'9 8.8
2016-Aug-24 13:33N 35°28' E 139°49'8 8.5
2016-Aug-24 12:33N 35°29' E 139°60'1 1.3
2016-Aug-24 11:33N 35°29' E 140°01'0 0.0
2016-Aug-24 10:33N 35°29' E 140°01'0 0.0
2016-Aug-24 09:33N 35°29' E 140°01'0 0.0
2016-Aug-24 08:33N 35°29' E 140°01'0 0.0
2016-Aug-24 07:33N 35°29' E 140°01'3 3.3
2016-Aug-24 06:33N 35°29' E 139°57'4 1.8
2016-Aug-24 04:34N 35°28' E 139°53'9 8.7
2016-Aug-24 03:34N 35°22' E 139°45'8 8.0
2016-Aug-24 02:33N 35°14' E 139°47'9 8.8
2016-Aug-24 01:33N 35°06' E 139°45'240 7.2
2016-Aug-22 16:18N 34°19' E 134°59'7 9.3
2016-Aug-22 15:33N 34°25' E 135°01'9 8.7
2016-Aug-22 14:33N 34°34' E 135°03'6 0.2
2016-Aug-21 01:18N 34°36' E 134°56'7 9.8
2016-Aug-21 00:33N 34°35' E 135°05'2110.0
2016-Aug-20 22:29N 34°15' E 134°59'8 8.8
2016-Aug-20 21:33N 34°06' E 135°01'242 7.8
2016-Aug-19 14:24N 35°09' E 139°44'8 9.5
2016-Aug-19 13:33N 35°17' E 139°44'8 8.1
2016-Aug-19 12:33N 35°26' E 139°45'  

Dump ship's entire track history